createdAt,value
2023-05-22T00:00:21.814Z,13.33
2023-05-22T00:02:50.901Z,10.90
2023-05-22T00:05:20.470Z,11.30
2023-05-22T00:07:49.010Z,10.60
2023-05-22T00:10:17.097Z,10.80
2023-05-22T00:12:45.457Z,11.10
2023-05-22T00:15:13.549Z,12.20
2023-05-22T00:17:44.624Z,10.97
2023-05-22T00:20:13.368Z,10.43
2023-05-22T00:22:41.388Z,9.80
2023-05-22T00:25:11.344Z,10.73
2023-05-22T00:27:39.870Z,10.87
2023-05-22T00:30:10.648Z,11.20
2023-05-22T00:32:39.146Z,9.90
2023-05-22T00:35:10.431Z,10.83
2023-05-22T00:37:38.840Z,12.47
2023-05-22T00:40:08.691Z,9.70
2023-05-22T00:42:37.140Z,9.80
2023-05-22T00:45:06.653Z,10.63
2023-05-22T00:47:35.105Z,10.93
2023-05-22T00:50:03.406Z,11.03
2023-05-22T00:52:33.482Z,10.23
2023-05-22T00:55:01.501Z,15.00
2023-05-22T00:57:30.081Z,9.87
2023-05-22T00:59:58.814Z,9.90
2023-05-22T01:02:28.295Z,9.90
2023-05-22T01:04:58.144Z,10.10
2023-05-22T01:07:26.104Z,9.93
2023-05-22T01:09:56.308Z,10.70
2023-05-22T01:12:27.788Z,11.43
2023-05-22T01:15:00.182Z,9.90
2023-05-22T01:17:35.145Z,11.37
2023-05-22T01:20:10.018Z,11.43
2023-05-22T01:23:16.559Z,10.30
2023-05-22T01:26:14.961Z,9.23
2023-05-22T01:28:53.176Z,12.50
2023-05-22T01:31:23.409Z,11.40
2023-05-22T01:33:52.751Z,9.60
2023-05-22T01:36:23.292Z,10.50
2023-05-22T01:38:51.384Z,9.77
2023-05-22T01:41:19.600Z,9.40
2023-05-22T01:43:47.547Z,10.07
2023-05-22T01:46:15.987Z,9.50
2023-05-22T01:48:45.658Z,10.93
2023-05-22T01:51:16.699Z,9.40
2023-05-22T01:53:47.224Z,10.03
2023-05-22T01:56:17.314Z,10.20
2023-05-22T01:58:48.570Z,10.13
2023-05-22T02:01:16.737Z,8.77
2023-05-22T02:03:46.435Z,11.93
2023-05-22T02:06:15.147Z,9.83
2023-05-22T02:08:43.235Z,9.43
2023-05-22T02:11:11.695Z,9.70
2023-05-22T02:13:39.746Z,9.77
2023-05-22T02:16:08.221Z,9.40
2023-05-22T02:18:36.353Z,12.27
2023-05-22T02:21:09.089Z,9.93
2023-05-22T02:23:37.967Z,9.40
2023-05-22T02:26:06.792Z,9.57
2023-05-22T02:28:34.862Z,9.10
2023-05-22T02:31:04.546Z,9.13
2023-05-22T02:33:32.655Z,10.40
2023-05-22T02:36:00.621Z,9.93
2023-05-22T02:38:30.349Z,9.87
2023-05-22T02:40:58.404Z,10.40
2023-05-22T02:43:26.842Z,9.60
2023-05-22T02:45:54.856Z,9.00
2023-05-22T02:48:23.182Z,11.40
2023-05-22T02:50:51.240Z,9.57
2023-05-22T02:53:19.743Z,9.00
2023-05-22T02:55:49.215Z,9.20
2023-05-22T02:58:18.301Z,9.67
2023-05-22T03:00:46.372Z,12.10
2023-05-22T03:03:14.992Z,9.00
2023-05-22T03:05:43.349Z,9.67
2023-05-22T03:08:11.727Z,9.33
2023-05-22T03:10:39.887Z,8.60
2023-05-22T03:13:09.598Z,10.23
2023-05-22T03:15:37.753Z,9.50
2023-05-22T03:18:06.254Z,9.10
2023-05-22T03:20:34.345Z,9.10
2023-05-22T03:23:02.750Z,9.23
2023-05-22T03:25:30.884Z,9.03
2023-05-22T03:27:59.001Z,8.80
2023-05-22T03:30:28.733Z,8.50
2023-05-22T03:32:56.925Z,9.07
2023-05-22T03:35:25.747Z,9.40
2023-05-22T03:37:54.332Z,9.53
2023-05-22T03:40:23.317Z,8.60
2023-05-22T03:42:51.408Z,9.30
2023-05-22T03:45:19.717Z,8.53
2023-05-22T03:47:49.435Z,10.23
2023-05-22T03:50:17.496Z,9.03
2023-05-22T03:52:46.044Z,9.07
2023-05-22T03:55:14.122Z,10.07
2023-05-22T03:57:42.294Z,10.13
2023-05-22T04:00:12.020Z,8.70
2023-05-22T04:02:40.128Z,9.60
2023-05-22T04:05:11.366Z,9.80
2023-05-22T04:07:39.703Z,9.60
2023-05-22T04:10:08.678Z,10.50
2023-05-22T04:12:36.944Z,8.67
2023-05-22T04:15:05.676Z,8.80
2023-05-22T04:17:33.737Z,11.20
2023-05-22T04:20:02.350Z,8.27
2023-05-22T04:22:31.873Z,8.43
2023-05-22T04:25:00.513Z,8.60
2023-05-22T04:27:30.029Z,8.67
2023-05-22T04:30:00.360Z,9.80
2023-05-22T04:32:29.920Z,8.93
2023-05-22T04:35:00.944Z,8.90
2023-05-22T04:37:31.897Z,9.03
2023-05-22T04:40:03.354Z,8.47
2023-05-22T04:42:31.650Z,9.13
2023-05-22T04:45:00.053Z,8.60
2023-05-22T04:47:29.012Z,8.97
2023-05-22T04:49:57.788Z,10.40
2023-05-22T04:52:25.744Z,8.80
2023-05-22T04:54:54.601Z,8.80
2023-05-22T04:57:25.629Z,8.63
2023-05-22T04:59:54.476Z,8.50
2023-05-22T05:02:22.488Z,9.80
2023-05-22T05:04:50.756Z,8.97
2023-05-22T05:07:18.828Z,9.20
2023-05-22T05:09:46.946Z,8.90
2023-05-22T05:12:15.137Z,9.90
2023-05-22T05:14:44.701Z,9.03
2023-05-22T05:17:12.733Z,7.77
2023-05-22T05:19:41.075Z,8.33
2023-05-22T05:22:09.249Z,9.60
2023-05-22T05:24:37.251Z,8.47
2023-05-22T05:27:05.776Z,8.13
2023-05-22T05:29:33.896Z,9.13
2023-05-22T05:32:04.451Z,8.67
2023-05-22T05:34:32.451Z,8.37
2023-05-22T05:37:00.892Z,8.13
2023-05-22T05:39:29.026Z,8.50
2023-05-22T05:41:57.407Z,8.10
2023-05-22T05:44:25.816Z,9.00
2023-05-22T05:46:54.228Z,8.43
2023-05-22T05:49:23.664Z,8.37
2023-05-22T05:51:52.001Z,8.43
2023-05-22T05:54:19.946Z,8.63
2023-05-22T05:56:48.282Z,9.23
2023-05-22T05:59:16.374Z,8.93
2023-05-22T06:01:46.379Z,8.97
2023-05-22T06:04:14.460Z,9.50
2023-05-22T06:06:44.552Z,8.60
2023-05-22T06:09:12.719Z,10.20
2023-05-22T06:11:40.819Z,9.73
2023-05-22T06:14:10.437Z,9.73
2023-05-22T06:16:38.531Z,8.30
2023-05-22T06:19:07.009Z,9.60
2023-05-22T06:21:35.074Z,9.07
2023-05-22T06:24:04.984Z,14.73
2023-05-22T06:26:33.553Z,9.07
2023-05-22T06:29:01.660Z,9.37
2023-05-22T06:31:29.616Z,9.00
2023-05-22T06:33:57.610Z,10.00
2023-05-22T06:36:25.722Z,8.87
2023-05-22T06:38:55.444Z,8.90
2023-05-22T06:41:26.269Z,11.40
2023-05-22T06:43:54.746Z,9.73
2023-05-22T06:46:25.974Z,9.10
2023-05-22T06:48:54.393Z,10.73
2023-05-22T06:51:22.408Z,10.80
2023-05-22T06:53:50.434Z,9.67
2023-05-22T06:56:19.138Z,9.93
2023-05-22T06:58:48.701Z,11.37
2023-05-22T07:01:17.273Z,10.93
2023-05-22T07:03:45.406Z,13.80
2023-05-22T07:06:13.522Z,8.60
2023-05-22T07:08:41.497Z,11.33
2023-05-22T07:11:09.398Z,10.20
2023-05-22T07:13:37.425Z,9.60
2023-05-22T07:16:07.490Z,10.03
2023-05-22T07:18:35.567Z,10.00
2023-05-22T07:21:03.557Z,10.30
2023-05-22T07:23:31.632Z,8.90
2023-05-22T07:26:00.047Z,9.70
2023-05-22T07:28:28.043Z,8.80
2023-05-22T07:30:56.424Z,10.37
2023-05-22T07:33:28.439Z,9.30
2023-05-22T07:35:56.522Z,9.47
2023-05-22T07:38:25.158Z,9.00
2023-05-22T07:40:53.621Z,8.60
2023-05-22T07:43:21.862Z,8.20
2023-05-22T07:45:50.055Z,8.93
2023-05-22T07:48:18.361Z,9.07
2023-05-22T07:50:48.112Z,13.60
2023-05-22T07:53:16.580Z,9.23
2023-05-22T07:55:45.208Z,9.20
2023-05-22T07:58:14.596Z,9.33
2023-05-22T08:00:43.471Z,9.07
2023-05-22T08:03:12.395Z,11.73
2023-05-22T08:05:40.634Z,9.03
2023-05-22T08:08:10.473Z,10.83
2023-05-22T08:13:10.561Z,11.33
2023-05-22T08:15:38.643Z,10.67
2023-05-22T08:18:06.786Z,11.87
2023-05-22T08:20:35.245Z,9.43
2023-05-22T08:23:03.390Z,8.77
2023-05-22T08:25:33.153Z,8.43
2023-05-22T08:28:01.026Z,10.80
2023-05-22T08:30:29.371Z,9.13
2023-05-22T08:32:57.328Z,27.93
2023-05-22T08:35:25.511Z,8.50
2023-05-22T08:37:53.473Z,13.03
2023-05-22T08:40:21.799Z,9.63
2023-05-22T08:42:54.770Z,9.20
2023-05-22T08:45:23.262Z,10.03
2023-05-22T08:47:53.900Z,8.70
2023-05-22T08:50:22.371Z,8.83
2023-05-22T08:52:52.679Z,8.33
2023-05-22T08:55:21.101Z,11.73
2023-05-22T08:57:51.198Z,16.23
2023-05-22T09:00:20.161Z,11.63
2023-05-22T09:02:48.331Z,11.60
2023-05-22T09:05:17.101Z,8.10
2023-05-22T09:07:45.930Z,9.30
2023-05-22T09:10:14.318Z,10.40
2023-05-22T09:13:05.308Z,11.90
2023-05-22T09:15:33.379Z,8.97
2023-05-22T09:18:01.272Z,9.00
2023-05-22T09:20:29.580Z,17.03
2023-05-22T09:22:57.697Z,11.13
2023-05-22T09:25:26.521Z,9.67
2023-05-22T09:27:54.467Z,10.83
2023-05-22T09:30:23.913Z,13.47
2023-05-22T09:32:52.057Z,8.70
2023-05-22T09:35:20.961Z,10.43
2023-05-22T09:37:49.049Z,10.40
2023-05-22T09:40:17.150Z,8.70
2023-05-22T09:42:48.844Z,8.40
2023-05-22T09:45:17.021Z,9.60
2023-05-22T09:47:49.839Z,8.63
2023-05-22T09:50:18.604Z,17.23
2023-05-22T09:52:46.888Z,12.30
2023-05-22T09:55:15.102Z,14.83
2023-05-22T09:57:44.803Z,11.13
2023-05-22T10:00:15.168Z,15.97
2023-05-22T10:02:44.989Z,18.33
2023-05-22T10:05:21.188Z,15.63
2023-05-22T10:07:50.367Z,18.83
2023-05-22T10:10:19.623Z,11.27
2023-05-22T10:12:51.482Z,14.77
2023-05-22T10:15:19.931Z,9.53
2023-05-22T10:17:47.849Z,12.93
2023-05-22T10:20:17.732Z,14.67
2023-05-22T10:22:45.671Z,13.60
2023-05-22T10:25:13.533Z,17.47
2023-05-22T10:27:41.627Z,12.17
2023-05-22T10:30:18.557Z,10.90
2023-05-22T10:32:47.900Z,11.47
2023-05-22T10:35:20.824Z,13.47
2023-05-22T10:37:51.486Z,8.30
2023-05-22T10:40:28.637Z,10.60
2023-05-22T10:43:00.517Z,10.50
2023-05-22T10:45:29.829Z,16.93
2023-05-22T10:48:05.175Z,12.43
2023-05-22T10:50:35.004Z,14.33
2023-05-22T10:53:22.718Z,9.50
2023-05-22T10:55:51.411Z,15.33
2023-05-22T10:58:19.795Z,14.63
2023-05-22T11:00:47.706Z,8.23
2023-05-22T11:03:18.409Z,11.87
2023-05-22T11:05:53.831Z,8.70
2023-05-22T11:08:38.158Z,16.53
2023-05-22T11:11:15.515Z,7.07
2023-05-22T11:13:43.738Z,7.70
2023-05-22T11:16:12.400Z,11.83
2023-05-22T11:18:40.371Z,9.67
2023-05-22T11:21:13.649Z,11.93
2023-05-22T11:23:41.711Z,11.63
2023-05-22T11:26:20.630Z,9.00
2023-05-22T11:28:51.643Z,11.53
2023-05-22T11:31:19.801Z,11.93
2023-05-22T11:33:48.385Z,13.93
2023-05-22T11:36:18.029Z,12.90
2023-05-22T11:38:46.360Z,15.97
2023-05-22T11:41:14.428Z,8.27
2023-05-22T11:43:43.632Z,10.73
2023-05-22T11:46:12.255Z,15.80
2023-05-22T11:48:42.067Z,14.13
2023-05-22T11:51:10.468Z,9.50
2023-05-22T11:53:39.838Z,7.50
2023-05-22T11:56:08.042Z,12.23
2023-05-22T11:58:36.148Z,8.77
2023-05-22T12:01:04.594Z,8.73
2023-05-22T12:03:32.904Z,7.10
2023-05-22T12:06:00.955Z,7.13
2023-05-22T12:08:28.844Z,8.70
2023-05-22T12:10:58.081Z,9.60
2023-05-22T12:13:26.740Z,10.10
2023-05-22T12:15:55.448Z,10.13
2023-05-22T12:22:05.931Z,16.27
2023-05-22T12:24:40.717Z,16.57
2023-05-22T12:27:13.013Z,16.43
2023-05-22T12:29:41.536Z,18.43
2023-05-22T12:32:11.041Z,24.20
2023-05-22T12:34:44.896Z,24.13
2023-05-22T12:37:22.735Z,27.93
2023-05-22T12:39:57.256Z,23.70
2023-05-22T12:42:26.815Z,23.77
2023-05-22T12:44:55.428Z,27.17
2023-05-22T12:47:23.601Z,39.70
2023-05-22T12:49:52.007Z,32.57
2023-05-22T12:52:19.955Z,22.13
2023-05-22T12:54:47.850Z,29.13
2023-05-22T12:57:16.872Z,29.03
2023-05-22T12:59:46.344Z,25.50
2023-05-22T13:02:14.412Z,22.20
2023-05-22T13:04:42.551Z,28.23
2023-05-22T13:07:10.630Z,28.40
2023-05-22T13:09:38.696Z,19.80
2023-05-22T13:12:07.405Z,24.37
2023-05-22T13:14:35.447Z,22.10
2023-05-22T13:17:04.967Z,20.23
2023-05-22T13:19:33.533Z,19.43
2023-05-22T13:22:01.638Z,26.87
2023-05-22T13:24:30.051Z,19.83
2023-05-22T13:26:58.132Z,19.53
2023-05-22T13:29:26.148Z,24.97
2023-05-22T13:31:54.140Z,17.40
2023-05-22T13:34:23.610Z,18.33
2023-05-22T13:36:51.877Z,20.57
2023-05-22T13:39:19.886Z,18.17
2023-05-22T13:41:47.934Z,18.80
2023-05-22T13:44:16.060Z,18.53
2023-05-22T13:46:44.138Z,17.40
2023-05-22T13:49:12.675Z,42.33
2023-05-22T13:51:42.017Z,19.23
2023-05-22T13:54:10.338Z,24.83
2023-05-22T13:56:38.318Z,23.73
2023-05-22T13:59:08.545Z,27.97
2023-05-22T14:01:37.444Z,24.27
2023-05-22T14:04:06.344Z,19.77
2023-05-22T14:06:34.721Z,21.37
2023-05-22T14:09:07.088Z,16.87
2023-05-22T14:11:35.457Z,16.33
2023-05-22T14:14:03.457Z,18.67
2023-05-22T14:16:31.628Z,13.70
2023-05-22T14:19:00.863Z,14.00
2023-05-22T14:21:28.958Z,16.70
2023-05-22T14:27:58.595Z,14.63
2023-05-22T14:38:01.190Z,12.30
2023-05-22T14:40:29.121Z,14.80
2023-05-22T14:42:58.812Z,11.27
2023-05-22T14:45:26.910Z,12.33
2023-05-22T14:47:55.483Z,16.00
2023-05-22T14:50:23.465Z,11.50
2023-05-22T14:52:51.961Z,15.80
2023-05-22T15:10:30.446Z,9.70
2023-05-22T15:12:58.858Z,10.60
2023-05-22T15:15:26.890Z,10.00
2023-05-22T15:17:55.608Z,11.23
2023-05-22T15:24:04.594Z,10.33
2023-05-22T15:26:34.091Z,9.60
2023-05-22T15:29:02.651Z,9.27
2023-05-22T15:31:30.581Z,9.83
2023-05-22T15:33:58.541Z,9.97
2023-05-22T15:36:27.653Z,10.40
2023-05-22T15:38:56.148Z,9.37
2023-05-22T15:41:24.037Z,10.83
2023-05-22T15:43:54.015Z,8.93
2023-05-22T15:46:22.076Z,9.30
2023-05-22T15:48:50.054Z,9.57
2023-05-22T15:51:18.111Z,9.03
2023-05-22T15:53:46.282Z,11.00
2023-05-22T15:56:14.146Z,10.40
2023-05-22T15:58:42.072Z,8.97
2023-05-22T16:01:12.224Z,9.53
2023-05-22T16:03:40.389Z,8.77
2023-05-22T16:06:08.413Z,8.50
2023-05-22T16:08:36.663Z,9.07
2023-05-22T16:11:04.552Z,8.53
2023-05-22T16:13:33.184Z,7.60
2023-05-22T16:16:01.758Z,8.03
2023-05-22T16:18:31.078Z,8.57
2023-05-22T16:20:58.961Z,8.70
2023-05-22T16:23:26.989Z,8.80
2023-05-22T16:25:54.897Z,7.57
2023-05-22T16:28:22.849Z,8.30
2023-05-22T16:30:51.165Z,10.40
2023-05-22T16:33:19.057Z,7.73
2023-05-22T16:35:48.380Z,9.07
2023-05-22T16:38:16.274Z,8.00
2023-05-22T16:40:44.147Z,9.40
2023-05-22T16:43:13.779Z,7.50
2023-05-22T16:45:46.388Z,8.70
2023-05-22T16:48:14.393Z,8.07
2023-05-22T16:50:42.497Z,7.60
2023-05-22T16:53:11.773Z,7.47
2023-05-22T16:55:39.884Z,7.10
2023-05-22T16:58:09.098Z,7.03
2023-05-22T17:00:37.655Z,7.60
2023-05-22T17:03:06.678Z,8.90
2023-05-22T17:05:35.206Z,7.37
2023-05-22T17:08:03.229Z,7.73
2023-05-22T17:10:32.595Z,7.40
2023-05-22T17:13:02.146Z,8.30
2023-05-22T17:15:31.800Z,7.73
2023-05-22T17:18:00.111Z,6.73
2023-05-22T17:20:29.507Z,8.87
2023-05-22T17:22:57.732Z,7.40
2023-05-22T17:25:25.763Z,6.90
2023-05-22T17:27:55.063Z,8.27
2023-05-22T17:30:22.985Z,7.20
2023-05-22T17:32:53.720Z,8.00
2023-05-22T17:35:21.722Z,7.27
2023-05-22T17:37:49.763Z,8.73
2023-05-22T17:40:18.264Z,7.77
2023-05-22T17:42:46.682Z,7.50
2023-05-22T17:45:16.445Z,8.97
2023-05-22T17:47:44.332Z,8.43
2023-05-22T17:50:12.805Z,9.13
2023-05-22T17:52:41.738Z,7.00
2023-05-22T17:55:10.466Z,9.80
2023-05-22T17:57:38.970Z,8.30
2023-05-22T18:00:10.094Z,7.77
2023-05-22T18:02:39.921Z,8.10
2023-05-22T18:05:09.114Z,7.43
2023-05-22T18:07:37.550Z,7.90
2023-05-22T18:10:06.328Z,14.53
2023-05-22T18:12:43.408Z,34.67
2023-05-22T18:15:12.366Z,35.80
2023-05-22T18:17:57.095Z,20.20
2023-05-22T18:20:25.342Z,19.77
2023-05-22T18:22:53.552Z,15.10
2023-05-22T18:25:21.962Z,18.83
2023-05-22T18:27:50.193Z,18.10
2023-05-22T18:30:19.264Z,17.80
2023-05-22T18:32:47.991Z,16.00
2023-05-22T18:35:18.908Z,17.90
2023-05-22T18:37:47.284Z,19.03
2023-05-22T18:40:15.616Z,13.60
2023-05-22T18:42:45.413Z,12.03
2023-05-22T18:45:14.496Z,15.33
2023-05-22T18:47:46.971Z,11.83
2023-05-22T18:50:21.106Z,9.87
2023-05-22T18:52:57.208Z,10.70
2023-05-22T18:55:25.548Z,8.70
2023-05-22T18:57:57.029Z,10.90
2023-05-22T19:00:33.079Z,10.70
2023-05-22T19:03:15.679Z,9.00
2023-05-22T19:09:25.281Z,11.27
2023-05-22T19:11:53.707Z,8.53
2023-05-22T19:14:22.686Z,11.87
2023-05-22T19:16:51.061Z,9.27
2023-05-22T19:19:19.334Z,11.87
2023-05-22T19:21:47.504Z,9.50
2023-05-22T19:24:18.290Z,8.43
2023-05-22T19:26:56.874Z,11.20
2023-05-22T19:30:16.757Z,14.77
2023-05-22T19:32:45.483Z,9.33
2023-05-22T19:35:13.834Z,8.97
2023-05-22T19:37:42.085Z,9.00
2023-05-22T19:40:11.614Z,8.13
2023-05-22T19:42:44.216Z,8.87
2023-05-22T19:45:18.244Z,10.37
2023-05-22T19:47:48.088Z,10.87
2023-05-22T19:50:20.372Z,9.80
2023-05-22T19:52:52.293Z,10.30
2023-05-22T19:55:20.720Z,7.30
2023-05-22T19:57:50.583Z,8.50
2023-05-22T20:00:19.629Z,9.70
2023-05-22T20:02:47.935Z,7.73
2023-05-22T20:05:16.410Z,9.07
2023-05-22T20:07:44.626Z,10.23
2023-05-22T20:10:12.893Z,11.80
2023-05-22T20:12:41.126Z,11.13
2023-05-22T20:15:15.473Z,8.63
2023-05-22T20:17:50.443Z,8.63
2023-05-22T20:20:18.961Z,7.33
2023-05-22T20:22:47.065Z,8.80
2023-05-22T20:25:15.379Z,11.57
2023-05-22T20:28:13.598Z,7.23
2023-05-22T20:30:47.636Z,13.40
2023-05-22T20:33:15.989Z,9.23
2023-05-22T20:35:44.510Z,10.57
2023-05-22T20:38:14.367Z,7.60
2023-05-22T20:40:46.509Z,11.83
2023-05-22T20:43:15.072Z,10.87
2023-05-22T20:45:45.869Z,9.70
2023-05-22T20:48:16.744Z,8.13
2023-05-22T20:50:48.003Z,13.23
2023-05-22T20:53:16.059Z,8.33
2023-05-22T20:55:44.162Z,11.27
2023-05-22T20:58:12.758Z,16.83
2023-05-22T21:00:42.047Z,7.63
2023-05-22T21:03:11.019Z,7.80
2023-05-22T21:05:41.029Z,10.40
2023-05-22T21:08:09.720Z,8.27
2023-05-22T21:10:40.355Z,7.53
2023-05-22T21:13:08.629Z,8.10
2023-05-22T21:15:40.025Z,11.53
2023-05-22T21:18:08.294Z,9.60
2023-05-22T21:20:40.273Z,9.47
2023-05-22T21:23:08.456Z,8.17
2023-05-22T21:25:38.406Z,7.27
2023-05-22T21:28:08.054Z,7.67
2023-05-22T21:30:36.064Z,11.50
2023-05-22T21:33:04.143Z,7.57
2023-05-22T21:35:32.247Z,9.47
2023-05-22T21:38:01.640Z,7.03
2023-05-22T21:40:29.733Z,7.50
2023-05-22T21:42:57.807Z,7.30
2023-05-22T21:45:26.098Z,10.07
2023-05-22T21:47:54.468Z,10.03
2023-05-22T21:50:22.572Z,8.73
2023-05-22T21:52:50.819Z,7.17
2023-05-22T21:55:20.782Z,7.13
2023-05-22T21:57:48.874Z,6.73
2023-05-22T22:00:17.580Z,7.13
2023-05-22T22:02:45.941Z,7.20
2023-05-22T22:05:14.057Z,6.97
2023-05-22T22:07:42.082Z,7.27
2023-05-22T22:10:10.944Z,9.80
2023-05-22T22:12:40.591Z,10.23
2023-05-22T22:15:09.767Z,7.00
2023-05-22T22:17:38.641Z,6.53
2023-05-22T22:20:08.077Z,7.80
2023-05-22T22:22:36.680Z,7.40
2023-05-22T22:25:05.012Z,7.53
2023-05-22T22:27:33.562Z,8.90
2023-05-22T22:30:02.955Z,7.03
2023-05-22T22:32:30.897Z,6.23
2023-05-22T22:34:59.178Z,8.20
2023-05-22T22:37:27.340Z,6.60
2023-05-22T22:39:55.652Z,6.87
2023-05-22T22:42:24.899Z,7.20
2023-05-22T22:44:53.444Z,10.17
2023-05-22T22:47:22.910Z,6.07
2023-05-22T22:49:52.641Z,6.60
2023-05-22T22:52:20.636Z,6.30
2023-05-22T22:54:49.003Z,6.23
2023-05-22T22:57:17.684Z,5.97
2023-05-22T22:59:45.631Z,6.30
2023-05-22T23:02:13.607Z,6.20
2023-05-22T23:04:43.005Z,6.30
2023-05-22T23:07:11.129Z,6.30
2023-05-22T23:09:40.245Z,6.70
2023-05-22T23:12:08.685Z,7.77
2023-05-22T23:14:37.997Z,6.63
2023-05-22T23:17:06.254Z,6.30
2023-05-22T23:19:34.666Z,6.13
2023-05-22T23:22:03.995Z,6.23
2023-05-22T23:24:32.390Z,5.90
2023-05-22T23:27:01.033Z,6.10
2023-05-22T23:29:29.056Z,5.80
2023-05-22T23:31:57.420Z,6.00
2023-05-22T23:34:25.690Z,5.80
2023-05-22T23:36:53.648Z,6.10
2023-05-22T23:39:22.923Z,6.10
2023-05-22T23:41:54.231Z,6.37
2023-05-22T23:44:22.218Z,5.63
2023-05-22T23:46:50.870Z,6.37
2023-05-22T23:49:18.852Z,5.87
2023-05-22T23:51:47.898Z,6.20
2023-05-22T23:54:17.229Z,5.43
2023-05-22T23:56:46.749Z,6.97
2023-05-22T23:59:15.085Z,5.37
